createdAt,value
2019-04-29T00:00:46.671Z,3.98
2019-04-29T00:03:15.499Z,3.95
2019-04-29T00:05:44.001Z,3.92
2019-04-29T00:08:12.524Z,3.91
2019-04-29T00:10:40.983Z,3.87
2019-04-29T00:13:09.523Z,3.82
2019-04-29T00:15:46.827Z,3.77
2019-04-29T00:18:19.486Z,3.60
2019-04-29T00:20:49.513Z,3.69
2019-04-29T00:23:17.953Z,3.64
2019-04-29T00:25:46.338Z,3.61
2019-04-29T00:28:15.606Z,3.57
2019-04-29T00:30:45.604Z,3.52
2019-04-29T00:33:14.027Z,3.49
2019-04-29T00:35:42.513Z,3.47
2019-04-29T00:38:21.473Z,3.44
2019-04-29T00:40:51.534Z,3.41
2019-04-29T00:43:37.967Z,3.37
2019-04-29T00:46:06.750Z,3.32
2019-04-29T00:48:35.309Z,3.29
2019-04-29T00:51:04.483Z,3.25
2019-04-29T00:53:32.860Z,3.21
2019-04-29T00:56:02.691Z,3.17
2019-04-29T00:58:31.081Z,3.15
2019-04-29T01:00:59.569Z,3.13
2019-04-29T01:03:28.902Z,3.12
2019-04-29T01:05:57.354Z,3.10
2019-04-29T01:08:25.975Z,3.07
2019-04-29T01:10:54.448Z,3.06
2019-04-29T01:13:23.087Z,3.05
2019-04-29T01:15:52.995Z,3.05
2019-04-29T01:18:21.636Z,3.06
2019-04-29T01:20:50.097Z,3.07
2019-04-29T01:23:18.501Z,3.06
2019-04-29T01:25:48.575Z,3.05
2019-04-29T01:28:21.424Z,3.03
2019-04-29T01:30:55.490Z,3.02
2019-04-29T01:33:24.027Z,3.01
2019-04-29T01:35:54.112Z,3.00
2019-04-29T01:38:22.476Z,2.99
2019-04-29T01:41:01.144Z,2.97
2019-04-29T01:43:47.742Z,2.95
2019-04-29T01:46:16.153Z,2.93
2019-04-29T01:48:44.519Z,2.87
2019-04-29T01:51:13.090Z,2.83
2019-04-29T01:53:41.469Z,2.79
2019-04-29T01:56:09.853Z,2.75
2019-04-29T01:58:38.355Z,2.71
2019-04-29T02:01:06.805Z,2.68
2019-04-29T02:03:35.313Z,2.66
2019-04-29T02:06:04.490Z,2.63
2019-04-29T02:08:32.811Z,2.43
2019-04-29T02:11:01.187Z,2.60
2019-04-29T02:13:29.586Z,2.60
2019-04-29T02:15:57.974Z,2.62
2019-04-29T02:18:26.372Z,2.60
2019-04-29T02:20:54.788Z,2.62
2019-04-29T02:23:39.536Z,2.77
2019-04-29T02:26:08.118Z,2.77
2019-04-29T02:28:36.522Z,2.73
2019-04-29T02:31:22.386Z,2.68
2019-04-29T02:33:50.775Z,2.55
2019-04-29T02:36:19.155Z,2.65
2019-04-29T02:38:53.384Z,2.63
2019-04-29T02:41:29.967Z,2.60
2019-04-29T02:43:59.964Z,2.58
2019-04-29T02:46:28.398Z,2.55
2019-04-29T02:48:56.953Z,2.55
2019-04-29T02:51:43.156Z,2.55
2019-04-29T02:54:11.730Z,2.55
2019-04-29T02:56:41.778Z,2.55
2019-04-29T02:59:14.504Z,2.55
2019-04-29T03:01:46.344Z,2.57
2019-04-29T03:04:16.463Z,2.62
2019-04-29T03:06:46.461Z,2.68
2019-04-29T03:09:14.827Z,2.68
2019-04-29T03:11:43.387Z,2.75
2019-04-29T03:14:11.933Z,2.82
2019-04-29T03:16:40.523Z,2.85
2019-04-29T03:19:16.405Z,2.83
2019-04-29T03:21:55.055Z,2.81
2019-04-29T03:24:24.941Z,2.81
2019-04-29T03:26:53.312Z,2.83
2019-04-29T03:29:24.821Z,2.84
2019-04-29T03:31:53.980Z,2.82
2019-04-29T03:34:23.913Z,2.85
2019-04-29T03:36:52.409Z,2.87
2019-04-29T03:39:21.178Z,2.87
2019-04-29T03:41:51.278Z,2.88
2019-04-29T03:44:19.651Z,2.83
2019-04-29T03:46:48.005Z,2.77
2019-04-29T03:49:16.496Z,2.74
2019-04-29T03:51:44.957Z,2.68
2019-04-29T03:54:14.853Z,2.68
2019-04-29T03:56:44.799Z,2.68
2019-04-29T03:59:13.261Z,2.68
2019-04-29T04:01:43.297Z,2.63
2019-04-29T04:04:13.357Z,2.68
2019-04-29T04:06:52.736Z,2.71
2019-04-29T04:09:22.756Z,2.75
2019-04-29T04:11:51.120Z,2.65
2019-04-29T04:14:19.747Z,2.80
2019-04-29T04:17:04.555Z,2.84
2019-04-29T04:19:34.002Z,2.99
2019-04-29T04:22:02.517Z,3.05
2019-04-29T04:24:30.966Z,3.10
2019-04-29T04:26:59.331Z,3.07
2019-04-29T04:29:27.714Z,3.06
2019-04-29T04:31:56.577Z,3.05
2019-04-29T04:34:25.092Z,3.03
2019-04-29T04:36:53.444Z,3.04
2019-04-29T04:39:25.973Z,3.08
2019-04-29T04:41:54.620Z,3.08
2019-04-29T04:44:24.771Z,3.09
2019-04-29T04:46:53.138Z,3.10
2019-04-29T04:49:21.527Z,3.08
2019-04-29T04:51:50.252Z,3.09
2019-04-29T04:54:18.651Z,3.22
2019-04-29T04:56:47.023Z,3.26
2019-04-29T04:59:15.422Z,3.35
2019-04-29T05:01:43.974Z,3.43
2019-04-29T05:04:12.465Z,3.49
2019-04-29T05:06:40.882Z,3.53
2019-04-29T05:09:09.348Z,3.64
2019-04-29T05:11:37.931Z,3.74
2019-04-29T05:14:06.325Z,3.83
2019-04-29T05:16:34.691Z,3.90
2019-04-29T05:19:03.065Z,3.98
2019-04-29T05:21:31.460Z,4.09
2019-04-29T05:23:59.839Z,4.15
2019-04-29T05:26:28.243Z,4.22
2019-04-29T05:28:56.626Z,4.26
2019-04-29T05:31:25.018Z,4.29
2019-04-29T05:33:53.586Z,4.40
2019-04-29T05:36:39.578Z,4.51
2019-04-29T05:39:21.370Z,4.64
2019-04-29T05:41:51.716Z,4.80
2019-04-29T05:44:24.668Z,4.94
2019-04-29T05:47:00.169Z,5.06
2019-04-29T05:49:41.760Z,5.18
2019-04-29T05:52:26.073Z,5.27
2019-04-29T05:54:54.524Z,5.35
2019-04-29T05:57:25.407Z,5.27
2019-04-29T05:59:53.055Z,5.27
2019-04-29T06:02:24.061Z,5.42
2019-04-29T06:04:52.487Z,5.53
2019-04-29T06:07:23.551Z,5.64
2019-04-29T06:09:51.864Z,5.81
2019-04-29T06:12:20.467Z,5.98
2019-04-29T06:14:48.881Z,6.05
2019-04-29T06:17:17.324Z,6.11
2019-04-29T06:19:47.329Z,6.06
2019-04-29T06:22:15.747Z,6.22
2019-04-29T06:24:44.113Z,6.37
2019-04-29T06:27:13.353Z,6.45
2019-04-29T06:29:41.745Z,6.66
2019-04-29T06:32:10.418Z,6.84
2019-04-29T06:34:40.183Z,6.99
2019-04-29T06:37:10.612Z,7.11
2019-04-29T06:39:39.028Z,7.14
2019-04-29T06:42:07.519Z,7.13
2019-04-29T06:44:35.899Z,7.13
2019-04-29T06:47:04.453Z,7.27
2019-04-29T06:49:32.919Z,7.37
2019-04-29T06:52:01.302Z,7.49
2019-04-29T06:54:29.766Z,7.54
2019-04-29T06:56:58.247Z,7.65
2019-04-29T06:59:26.779Z,7.74
2019-04-29T07:01:55.171Z,7.91
2019-04-29T07:04:23.608Z,8.04
2019-04-29T07:06:57.551Z,8.18
2019-04-29T07:09:22.909Z,8.34
2019-04-29T07:11:51.336Z,8.47
2019-04-29T07:14:19.747Z,8.64
2019-04-29T07:16:48.146Z,8.74
2019-04-29T07:19:16.658Z,8.84
2019-04-29T07:21:47.016Z,8.92
2019-04-29T07:24:15.403Z,9.00
2019-04-29T07:26:43.779Z,9.30
2019-04-29T07:29:12.366Z,9.39
2019-04-29T07:31:40.757Z,9.51
2019-04-29T07:34:10.029Z,9.72
2019-04-29T07:36:38.419Z,9.73
2019-04-29T07:39:07.815Z,9.85
2019-04-29T07:41:36.265Z,9.83
2019-04-29T07:44:04.995Z,9.92
2019-04-29T07:46:55.145Z,10.19
2019-04-29T07:49:05.833Z,10.11
2019-04-29T07:51:38.915Z,10.44
2019-04-29T07:54:04.971Z,10.68
2019-04-29T07:56:33.561Z,10.78
2019-04-29T07:59:03.075Z,11.06
2019-04-29T08:01:32.134Z,11.24
2019-04-29T08:04:00.555Z,11.32
2019-04-29T08:06:29.673Z,11.35
2019-04-29T08:09:07.459Z,11.35
2019-04-29T08:11:31.485Z,11.37
2019-04-29T08:14:01.729Z,11.50
2019-04-29T08:16:30.371Z,11.56
2019-04-29T08:18:58.874Z,11.67
2019-04-29T08:21:30.343Z,11.67
2019-04-29T08:23:58.783Z,11.76
2019-04-29T08:26:27.185Z,11.95
2019-04-29T08:29:00.456Z,12.25
2019-04-29T08:31:26.042Z,12.39
2019-04-29T08:33:56.120Z,12.54
2019-04-29T08:36:24.657Z,12.48
2019-04-29T08:38:53.055Z,12.59
2019-04-29T08:41:28.593Z,12.83
2019-04-29T08:43:57.808Z,13.17
2019-04-29T08:46:25.464Z,13.04
2019-04-29T08:48:53.878Z,13.21
2019-04-29T08:51:23.865Z,13.44
2019-04-29T08:53:52.425Z,13.64
2019-04-29T08:56:20.903Z,13.89
2019-04-29T08:58:51.046Z,14.02
2019-04-29T09:01:19.447Z,14.22
2019-04-29T09:03:47.906Z,14.22
2019-04-29T09:06:16.324Z,14.33
2019-04-29T09:08:54.498Z,14.19
2019-04-29T09:11:15.335Z,14.25
2019-04-29T09:13:43.732Z,14.33
2019-04-29T09:16:12.152Z,14.39
2019-04-29T09:18:40.617Z,14.36
2019-04-29T09:21:10.521Z,14.55
2019-04-29T09:23:38.904Z,14.59
2019-04-29T09:26:14.514Z,14.45
2019-04-29T09:28:43.101Z,14.48
2019-04-29T09:31:11.505Z,14.65
2019-04-29T09:33:44.268Z,14.80
2019-04-29T09:36:13.782Z,14.80
2019-04-29T09:38:40.297Z,14.69
2019-04-29T09:41:13.079Z,14.96
2019-04-29T09:43:59.181Z,15.02
2019-04-29T09:46:34.177Z,14.96
2019-04-29T09:49:00.065Z,15.23
2019-04-29T09:51:29.771Z,15.44
2019-04-29T09:53:58.442Z,15.35
2019-04-29T09:56:27.064Z,15.23
2019-04-29T09:59:13.124Z,15.32
2019-04-29T10:01:45.989Z,15.45
2019-04-29T10:04:22.053Z,15.38
2019-04-29T10:06:52.101Z,15.34
2019-04-29T10:09:21.060Z,15.27
2019-04-29T10:11:49.888Z,15.35
2019-04-29T10:14:18.417Z,15.44
2019-04-29T10:16:51.390Z,15.65
2019-04-29T10:19:23.324Z,15.59
2019-04-29T10:21:51.750Z,15.63
2019-04-29T10:24:20.130Z,15.76
2019-04-29T10:26:50.068Z,15.95
2019-04-29T10:29:20.378Z,15.86
2019-04-29T10:31:49.085Z,16.03
2019-04-29T10:34:18.332Z,16.09
2019-04-29T10:36:47.147Z,15.91
2019-04-29T10:39:33.736Z,16.08
2019-04-29T10:42:03.803Z,16.36
2019-04-29T10:44:39.528Z,16.64
2019-04-29T10:47:21.387Z,16.80
2019-04-29T10:49:57.435Z,16.82
2019-04-29T10:52:26.730Z,16.77
2019-04-29T10:54:56.543Z,16.76
2019-04-29T10:57:29.278Z,16.74
2019-04-29T11:00:17.021Z,16.66
2019-04-29T11:02:49.243Z,16.67
2019-04-29T11:05:19.107Z,16.87
2019-04-29T11:07:49.132Z,17.05
2019-04-29T11:10:26.161Z,17.27
2019-04-29T11:12:55.086Z,17.21
2019-04-29T11:15:28.450Z,17.45
2019-04-29T11:17:59.207Z,17.67
2019-04-29T11:20:26.672Z,17.63
2019-04-29T11:23:02.526Z,18.00
2019-04-29T11:25:32.707Z,18.04
2019-04-29T11:28:02.717Z,18.07
2019-04-29T11:30:34.841Z,18.17
2019-04-29T11:33:08.024Z,18.12
2019-04-29T11:35:43.893Z,17.94
2019-04-29T11:38:13.563Z,17.68
2019-04-29T11:40:44.191Z,17.83
2019-04-29T11:43:15.637Z,17.75
2019-04-29T11:45:44.287Z,17.36
2019-04-29T11:48:12.839Z,17.60
2019-04-29T11:50:45.170Z,17.43
2019-04-29T11:53:14.577Z,17.43
2019-04-29T11:55:46.264Z,17.13
2019-04-29T11:58:20.154Z,17.12
2019-04-29T12:01:10.391Z,17.07
2019-04-29T12:03:43.174Z,17.21
2019-04-29T12:06:16.348Z,17.15
2019-04-29T12:08:48.159Z,17.32
2019-04-29T12:11:19.173Z,17.42
2019-04-29T12:13:53.473Z,17.28
2019-04-29T12:16:24.520Z,17.38
2019-04-29T12:19:01.544Z,17.47
2019-04-29T12:21:34.337Z,17.44
2019-04-29T12:24:04.217Z,17.32
2019-04-29T12:26:34.998Z,17.25
2019-04-29T12:29:02.906Z,16.90
2019-04-29T12:31:37.217Z,16.96
2019-04-29T12:34:07.239Z,17.05
2019-04-29T12:36:48.269Z,17.35
2019-04-29T12:39:42.889Z,17.38
2019-04-29T12:42:04.521Z,17.34
2019-04-29T12:44:35.283Z,17.37
2019-04-29T12:47:26.624Z,17.43
2019-04-29T12:49:52.546Z,17.50
2019-04-29T12:52:21.187Z,17.28
2019-04-29T12:54:49.568Z,17.26
2019-04-29T12:57:18.936Z,17.55
2019-04-29T12:59:48.314Z,17.66
2019-04-29T13:02:24.443Z,17.82
2019-04-29T13:05:10.873Z,17.85
2019-04-29T13:07:49.852Z,17.80
2019-04-29T13:10:37.850Z,17.89
2019-04-29T13:13:06.310Z,17.77
2019-04-29T13:15:43.834Z,17.74
2019-04-29T13:18:23.075Z,18.04
2019-04-29T13:20:50.775Z,18.03
2019-04-29T13:23:24.398Z,18.00
2019-04-29T13:25:51.075Z,17.83
2019-04-29T13:28:29.499Z,17.85
2019-04-29T13:30:51.500Z,17.86
2019-04-29T13:33:19.892Z,17.92
2019-04-29T13:35:49.775Z,17.83
2019-04-29T13:38:18.123Z,17.72
2019-04-29T13:40:46.610Z,17.73
2019-04-29T13:43:15.157Z,17.44
2019-04-29T13:45:45.542Z,17.30
2019-04-29T13:48:31.886Z,17.07
2019-04-29T13:51:34.766Z,16.75
2019-04-29T13:53:48.700Z,16.57
2019-04-29T13:56:32.603Z,16.41
2019-04-29T13:58:47.339Z,16.26
2019-04-29T14:01:33.024Z,16.11
2019-04-29T14:03:59.088Z,16.05
2019-04-29T14:06:28.189Z,16.04
2019-04-29T14:08:59.949Z,16.12
2019-04-29T14:11:27.692Z,16.36
2019-04-29T14:13:56.351Z,16.66
2019-04-29T14:16:24.862Z,16.78
2019-04-29T14:18:53.266Z,16.89
2019-04-29T14:21:25.709Z,16.90
2019-04-29T14:23:52.182Z,17.10
2019-04-29T14:26:20.623Z,17.07
2019-04-29T14:28:49.132Z,16.91
2019-04-29T14:31:22.794Z,16.79
2019-04-29T14:34:00.370Z,16.60
2019-04-29T14:36:28.388Z,16.17
2019-04-29T14:38:58.363Z,16.17
2019-04-29T14:41:29.311Z,16.00
2019-04-29T14:44:11.254Z,15.82
2019-04-29T14:46:50.876Z,15.66
2019-04-29T14:49:23.489Z,15.50
2019-04-29T14:51:51.878Z,15.45
2019-04-29T14:54:22.012Z,15.40
2019-04-29T14:56:50.780Z,15.35
2019-04-29T14:59:19.505Z,15.24
2019-04-29T15:01:49.932Z,15.11
2019-04-29T15:04:20.009Z,14.99
2019-04-29T15:06:48.457Z,14.88
2019-04-29T15:09:19.650Z,14.75
2019-04-29T15:11:58.723Z,14.67
2019-04-29T15:14:31.135Z,14.52
2019-04-29T15:17:07.895Z,14.38
2019-04-29T15:19:55.348Z,14.24
2019-04-29T15:22:35.781Z,14.15
2019-04-29T15:25:06.452Z,13.95
2019-04-29T15:27:34.879Z,13.77
2019-04-29T15:30:07.925Z,13.72
2019-04-29T15:32:36.381Z,13.70
2019-04-29T15:35:06.914Z,13.61
2019-04-29T15:37:35.345Z,13.54
2019-04-29T15:40:06.670Z,13.42
2019-04-29T15:42:38.034Z,13.21
2019-04-29T15:45:07.298Z,13.04
2019-04-29T15:47:35.710Z,12.85
2019-04-29T15:50:18.328Z,12.72
2019-04-29T15:52:35.950Z,12.62
2019-04-29T15:55:07.195Z,12.55
2019-04-29T15:57:36.057Z,12.56
2019-04-29T16:00:21.215Z,12.57
2019-04-29T16:02:41.525Z,12.42
2019-04-29T16:05:22.261Z,12.18
2019-04-29T16:07:58.243Z,11.95
2019-04-29T16:10:44.577Z,11.72
2019-04-29T16:13:14.257Z,11.49
2019-04-29T16:15:42.950Z,11.32
2019-04-29T16:18:14.845Z,11.26
2019-04-29T16:20:41.636Z,11.18
2019-04-29T16:23:11.766Z,11.14
2019-04-29T16:25:41.007Z,11.14
2019-04-29T16:28:10.509Z,11.15
2019-04-29T16:30:39.057Z,11.14
2019-04-29T16:33:14.354Z,11.12
2019-04-29T16:35:40.043Z,11.13
2019-04-29T16:40:41.896Z,11.15
2019-04-29T16:43:11.956Z,11.17
2019-04-29T16:48:33.278Z,11.23
2019-04-29T16:51:06.711Z,11.26
2019-04-29T16:53:32.096Z,11.23
2019-04-29T16:56:00.874Z,11.21
2019-04-29T16:58:29.329Z,11.23
2019-04-29T17:00:57.858Z,11.23
2019-04-29T17:03:26.310Z,11.20
2019-04-29T17:05:54.714Z,11.18
2019-04-29T17:08:24.824Z,11.18
2019-04-29T17:11:12.103Z,11.13
2019-04-29T17:13:37.474Z,11.08
2019-04-29T17:16:07.725Z,11.03
2019-04-29T17:18:36.136Z,10.99
2019-04-29T17:21:05.730Z,10.95
2019-04-29T17:23:35.122Z,10.81
2019-04-29T17:26:04.349Z,10.89
2019-04-29T17:28:50.764Z,10.69
2019-04-29T17:31:23.861Z,10.81
2019-04-29T17:33:54.700Z,10.78
2019-04-29T17:35:17.482Z,11.14
2019-04-29T17:36:25.718Z,10.75
2019-04-29T17:38:53.905Z,10.72
2019-04-29T17:41:22.309Z,10.67
2019-04-29T17:43:58.511Z,10.60
2019-04-29T17:46:44.865Z,10.53
2019-04-29T17:49:17.757Z,10.41
2019-04-29T17:51:46.158Z,10.44
2019-04-29T17:54:19.319Z,10.23
2019-04-29T17:57:03.664Z,10.36
2019-04-29T17:59:29.416Z,10.30
2019-04-29T18:01:55.783Z,10.26
2019-04-29T18:04:36.059Z,10.24
2019-04-29T18:07:18.513Z,10.21
2019-04-29T18:09:48.491Z,10.20
2019-04-29T18:12:18.652Z,10.16
2019-04-29T18:14:47.056Z,10.17
2019-04-29T18:17:24.285Z,10.14
2019-04-29T18:20:13.465Z,9.99
2019-04-29T18:22:54.864Z,10.05
2019-04-29T18:25:36.577Z,10.02
2019-04-29T18:28:05.196Z,9.97
2019-04-29T18:30:37.767Z,9.88
2019-04-29T18:33:05.353Z,9.90
2019-04-29T18:35:35.443Z,9.84
2019-04-29T18:38:07.548Z,9.87
2019-04-29T18:40:41.453Z,9.69
2019-04-29T18:43:05.027Z,9.83
2019-04-29T18:45:35.050Z,9.79
2019-04-29T18:48:08.989Z,9.77
2019-04-29T18:50:38.851Z,9.59
2019-04-29T18:53:06.906Z,9.76
2019-04-29T18:55:35.777Z,9.75
2019-04-29T18:58:05.808Z,9.73
2019-04-29T19:00:34.881Z,9.59
2019-04-29T19:03:06.435Z,9.67
2019-04-29T19:05:45.539Z,9.57
2019-04-29T19:08:19.097Z,9.63
2019-04-29T19:10:45.989Z,9.63
2019-04-29T19:13:16.691Z,9.63
2019-04-29T19:15:48.221Z,9.61
2019-04-29T19:18:17.511Z,9.58
2019-04-29T19:20:47.811Z,9.58
2019-04-29T19:23:16.082Z,9.57
2019-04-29T19:25:46.459Z,9.55
2019-04-29T19:28:25.302Z,9.54
2019-04-29T19:30:47.337Z,9.52
2019-04-29T19:33:15.739Z,9.50
2019-04-29T19:35:45.161Z,9.49
2019-04-29T19:38:15.630Z,9.48
2019-04-29T19:40:43.713Z,9.48
2019-04-29T19:43:15.382Z,9.47
2019-04-29T19:45:44.662Z,9.45
2019-04-29T19:48:12.739Z,9.45
2019-04-29T19:50:41.118Z,9.44
2019-04-29T19:53:11.142Z,9.41
2019-04-29T19:55:42.237Z,9.40
2019-04-29T19:58:12.446Z,9.39
2019-04-29T20:00:40.335Z,9.38
2019-04-29T20:03:20.466Z,9.35
2019-04-29T20:05:49.475Z,9.36
2019-04-29T20:08:37.868Z,9.32
2019-04-29T20:10:51.800Z,9.31
2019-04-29T20:13:30.587Z,9.30
2019-04-29T20:15:57.187Z,9.31
2019-04-29T20:18:58.347Z,9.30
2019-04-29T20:21:24.677Z,9.28
2019-04-29T20:23:48.017Z,9.28
2019-04-29T20:26:23.772Z,9.27
2019-04-29T20:28:51.084Z,9.25
2019-04-29T20:31:21.879Z,9.26
2019-04-29T20:33:48.751Z,9.25
2019-04-29T20:36:37.361Z,9.24
2019-04-29T20:38:48.039Z,9.24
2019-04-29T20:41:19.542Z,9.23
2019-04-29T20:43:46.919Z,9.24
2019-04-29T20:46:17.643Z,9.26
2019-04-29T20:48:45.954Z,9.26
2019-04-29T20:51:16.706Z,9.24
2019-04-29T20:53:47.721Z,9.16
2019-04-29T20:56:23.703Z,9.29
2019-04-29T20:58:46.965Z,9.27
2019-04-29T21:01:20.291Z,9.27
2019-04-29T21:03:52.312Z,9.28
2019-04-29T21:06:21.232Z,9.27
2019-04-29T21:08:52.178Z,9.28
2019-04-29T21:11:27.897Z,9.28
2019-04-29T21:14:05.479Z,9.30
2019-04-29T21:16:38.600Z,9.33
2019-04-29T21:19:08.989Z,9.32
2019-04-29T21:21:41.840Z,9.33
2019-04-29T21:24:14.097Z,9.35
2019-04-29T21:26:44.570Z,9.36
2019-04-29T21:29:10.691Z,9.36
2019-04-29T21:31:39.881Z,9.36
2019-04-29T21:34:08.302Z,9.34
2019-04-29T21:36:47.509Z,9.36
2019-04-29T21:39:25.154Z,9.35
2019-04-29T21:42:11.408Z,9.34
2019-04-29T21:44:39.958Z,9.37
2019-04-29T21:47:08.373Z,9.37
2019-04-29T21:49:44.954Z,9.36
2019-04-29T21:52:06.993Z,9.39
2019-04-29T21:54:35.451Z,9.38
2019-04-29T21:57:05.774Z,9.41
2019-04-29T21:59:35.738Z,9.23
2019-04-29T22:02:06.639Z,9.39
2019-04-29T22:04:37.389Z,9.42
2019-04-29T22:07:08.091Z,9.41
2019-04-29T22:09:40.497Z,9.48
2019-04-29T22:12:06.736Z,9.49
2019-04-29T22:14:35.277Z,9.51
2019-04-29T22:17:05.297Z,9.45
2019-04-29T22:19:35.078Z,9.45
2019-04-29T22:22:05.719Z,9.47
2019-04-29T22:24:35.659Z,9.30
2019-04-29T22:27:08.055Z,9.47
2019-04-29T22:29:38.968Z,9.44
2019-04-29T22:32:14.348Z,9.45
2019-04-29T22:34:40.210Z,9.45
2019-04-29T22:37:08.614Z,9.48
2019-04-29T22:39:37.008Z,9.50
2019-04-29T22:42:09.739Z,9.48
2019-04-29T22:44:38.261Z,9.48
2019-04-29T22:47:08.364Z,9.48
2019-04-29T22:49:36.763Z,9.52
2019-04-29T22:52:05.329Z,9.52
2019-04-29T22:54:35.316Z,9.53
2019-04-29T22:57:05.715Z,9.56
2019-04-29T22:59:35.370Z,9.41
2019-04-29T23:02:05.852Z,9.56
2019-04-29T23:04:35.082Z,9.57
2019-04-29T23:07:05.756Z,9.58
2019-04-29T23:09:36.561Z,9.42
2019-04-29T23:12:05.452Z,9.62
2019-04-29T23:14:36.022Z,9.57
2019-04-29T23:17:06.153Z,9.64
2019-04-29T23:19:35.088Z,9.61
2019-04-29T23:22:06.872Z,9.63
2019-04-29T23:24:55.749Z,9.68
2019-04-29T23:27:29.043Z,9.67
2019-04-29T23:29:59.560Z,9.67
2019-04-29T23:32:29.742Z,9.68
2019-04-29T23:35:01.683Z,9.69
2019-04-29T23:37:29.449Z,9.69
2019-04-29T23:39:58.171Z,9.69
2019-04-29T23:42:26.572Z,9.72
2019-04-29T23:44:56.987Z,9.75
2019-04-29T23:47:26.670Z,9.75
2019-04-29T23:49:55.082Z,9.76
2019-04-29T23:52:23.518Z,9.75
2019-04-29T23:54:53.715Z,9.76
2019-04-29T23:57:27.506Z,9.75
